This is the latest recevied weather packets stored in our database for station/object N7CEE. If no packets are shown the sender has not sent any weather packets the latest 10 day(s).
| Time | Temp. | Humidity | Pressure | Rain* | Wind** | Luminosity | Snow |
|---|---|---|---|---|---|---|---|
| 1777689521 | 11.11° C | 35% | 1023.5 hPa | 0 mm | - | 0 W/m² | - |
| 1777689218 | 11.11° C | 35% | 1023.7 hPa | 0 mm | - | 0 W/m² | - |
| 1777688916 | 11.11° C | 36% | 1023.6 hPa | 0 mm | - | 0 W/m² | - |
| 1777688612 | 11.11° C | 36% | 1023.6 hPa | 0 mm | - | 0 W/m² | - |
| 1777688309 | 11.11° C | 35% | 1023.7 hPa | 0 mm | - | 1 W/m² | - |
| 1777687704 | 11.11° C | 34% | 1023.5 hPa | 0 mm | - | 3 W/m² | - |
| 1777674370 | 15.56° C | 29% | 1021.9 hPa | 0 mm | - | 167 W/m² | - |
| 1777674067 | 15.56° C | 27% | 1021.8 hPa | 0 mm | - | 125 W/m² | - |
| 1777673764 | 16.11° C | 28% | 1021.9 hPa | 0 mm | - | 145 W/m² | - |
| 1777672552 | 15° C | 29% | 1021.9 hPa | 0 mm | - | 390 W/m² | - |
| 1777671943 | 15° C | 28% | 1022.3 hPa | 0 mm | - | 162 W/m² | - |
| 1777671336 | 15.56° C | 28% | 1022.3 hPa | 0 mm | - | 158 W/m² | - |
| 1777671032 | 15.56° C | 28% | 1022.1 hPa | 0 mm | - | 130 W/m² | - |
| 1777670426 | 15.56° C | 28% | 1022.5 hPa | 0 mm | - | 235 W/m² | - |
| 1777670122 | 15.56° C | 27% | 1022.5 hPa | 0 mm | - | 271 W/m² | - |
| 1777669516 | 15° C | 29% | 1022.5 hPa | 0 mm | - | 199 W/m² | - |
| 1777668910 | 14.44° C | 29% | 1022.6 hPa | 0 mm | - | 113 W/m² | - |
| 1777663756 | 15.56° C | 26% | 1023 hPa | 0 mm | - | 271 W/m² | - |
| 1777662544 | 15° C | 26% | 1023.2 hPa | 0 mm | - | 543 W/m² | - |
| 1777662240 | 15° C | 26% | 1023.1 hPa | 0 mm | - | 231 W/m² | - |
| 1777660718 | 15.56° C | 26% | 1023.2 hPa | 0 mm | - | 297 W/m² | - |
| 1777660416 | 15.56° C | 26% | 1023.4 hPa | 0 mm | - | 264 W/m² | - |
| 1777660112 | 16.11° C | 25% | 1023.5 hPa | 0 mm | - | 291 W/m² | - |
| 1777659810 | 16.11° C | 25% | 1023.5 hPa | 0 mm | - | 333 W/m² | - |
| 1777659506 | 16.11° C | 25% | 1023.4 hPa | 0 mm | - | 907 W/m² | - |
* Rain latest hour (hover to see other rain measurements)
** Current wind speed in m/s (hover to see current wind gust speed)